sensor_id;sensor_type;location;lat;lon;timestamp;pressure;altitude;pressure_sealevel;temperature;humidity
34712;BME280;20941;42.408;25.634;2023-02-04T00:01:47;99485.88;;;2.73;73.51
34712;BME280;20941;42.408;25.634;2023-02-04T00:04:12;99502.84;;;2.77;74.01
34712;BME280;20941;42.408;25.634;2023-02-04T00:06:38;99503.72;;;2.55;74.56
34712;BME280;20941;42.408;25.634;2023-02-04T00:09:04;99469.59;;;2.32;75.38
34712;BME280;20941;42.408;25.634;2023-02-04T00:11:29;99456.69;;;2.21;75.90
34712;BME280;20941;42.408;25.634;2023-02-04T00:13:55;99481.06;;;2.41;75.28
34712;BME280;20941;42.408;25.634;2023-02-04T00:16:20;99468.44;;;2.28;75.29
34712;BME280;20941;42.408;25.634;2023-02-04T00:18:46;99466.88;;;2.37;74.68
34712;BME280;20941;42.408;25.634;2023-02-04T00:21:11;99458.03;;;2.40;74.61
34712;BME280;20941;42.408;25.634;2023-02-04T00:23:37;99471.25;;;2.55;74.91
34712;BME280;20941;42.408;25.634;2023-02-04T00:26:03;99462.31;;;2.53;74.95
34712;BME280;20941;42.408;25.634;2023-02-04T00:28:29;99441.44;;;2.46;75.79
34712;BME280;20941;42.408;25.634;2023-02-04T00:30:54;99454.00;;;2.53;75.51
34712;BME280;20941;42.408;25.634;2023-02-04T00:33:20;99447.13;;;2.61;75.73
34712;BME280;20941;42.408;25.634;2023-02-04T00:35:45;99452.13;;;2.59;76.74
34712;BME280;20941;42.408;25.634;2023-02-04T00:38:11;99442.91;;;2.53;76.73
34712;BME280;20941;42.408;25.634;2023-02-04T00:40:37;99448.25;;;2.60;76.34
34712;BME280;20941;42.408;25.634;2023-02-04T00:43:02;99446.84;;;2.58;77.36
34712;BME280;20941;42.408;25.634;2023-02-04T00:45:28;99443.94;;;2.47;76.53
34712;BME280;20941;42.408;25.634;2023-02-04T00:47:53;99430.41;;;2.29;77.28
34712;BME280;20941;42.408;25.634;2023-02-04T00:50:19;99445.09;;;2.51;77.63
34712;BME280;20941;42.408;25.634;2023-02-04T00:52:45;99430.84;;;2.43;78.47
34712;BME280;20941;42.408;25.634;2023-02-04T00:55:11;99435.34;;;2.49;78.82
34712;BME280;20941;42.408;25.634;2023-02-04T00:57:39;99425.28;;;2.43;78.05
34712;BME280;20941;42.408;25.634;2023-02-04T01:00:05;99424.78;;;2.46;78.17
34712;BME280;20941;42.408;25.634;2023-02-04T01:02:31;99408.63;;;2.43;78.04
34712;BME280;20941;42.408;25.634;2023-02-04T01:04:57;99421.53;;;2.54;78.12
34712;BME280;20941;42.408;25.634;2023-02-04T01:07:22;99398.69;;;2.47;78.06
34712;BME280;20941;42.408;25.634;2023-02-04T01:09:48;99386.19;;;2.44;78.14
34712;BME280;20941;42.408;25.634;2023-02-04T01:12:13;99406.84;;;2.59;78.67
34712;BME280;20941;42.408;25.634;2023-02-04T01:14:39;99377.00;;;2.44;78.23
34712;BME280;20941;42.408;25.634;2023-02-04T01:17:04;99395.88;;;2.69;78.82
34712;BME280;20941;42.408;25.634;2023-02-04T01:19:30;99370.13;;;2.51;77.85
34712;BME280;20941;42.408;25.634;2023-02-04T01:21:55;99395.81;;;2.64;77.74
34712;BME280;20941;42.408;25.634;2023-02-04T01:24:21;99379.63;;;2.55;77.98
34712;BME280;20941;42.408;25.634;2023-02-04T01:26:46;99378.34;;;2.68;77.79
34712;BME280;20941;42.408;25.634;2023-02-04T01:29:12;99381.72;;;2.70;77.95
34712;BME280;20941;42.408;25.634;2023-02-04T01:31:37;99326.41;;;2.36;77.94
34712;BME280;20941;42.408;25.634;2023-02-04T01:34:03;99356.56;;;2.55;78.37
34712;BME280;20941;42.408;25.634;2023-02-04T01:36:28;99362.09;;;2.55;78.88
34712;BME280;20941;42.408;25.634;2023-02-04T01:38:54;99353.75;;;2.50;78.72
34712;BME280;20941;42.408;25.634;2023-02-04T01:41:20;99358.78;;;2.53;79.36
34712;BME280;20941;42.408;25.634;2023-02-04T01:43:47;99341.38;;;2.35;79.27
34712;BME280;20941;42.408;25.634;2023-02-04T01:46:14;99353.34;;;2.36;80.22
34712;BME280;20941;42.408;25.634;2023-02-04T01:48:40;99344.69;;;2.32;81.51
34712;BME280;20941;42.408;25.634;2023-02-04T01:51:13;99363.06;;;2.38;81.51
34712;BME280;20941;42.408;25.634;2023-02-04T01:53:40;99351.97;;;2.38;81.73
34712;BME280;20941;42.408;25.634;2023-02-04T01:56:21;99345.81;;;2.36;82.09
34712;BME280;20941;42.408;25.634;2023-02-04T01:58:47;99346.72;;;2.42;81.12
34712;BME280;20941;42.408;25.634;2023-02-04T02:04:00;99322.44;;;2.27;80.86
34712;BME280;20941;42.408;25.634;2023-02-04T02:06:27;99321.53;;;2.21;79.77
34712;BME280;20941;42.408;25.634;2023-02-04T02:08:52;99309.66;;;2.26;79.79
34712;BME280;20941;42.408;25.634;2023-02-04T02:11:18;99320.84;;;2.36;79.82
34712;BME280;20941;42.408;25.634;2023-02-04T02:13:44;99316.47;;;2.40;79.36
34712;BME280;20941;42.408;25.634;2023-02-04T02:16:09;99317.09;;;2.48;79.54
34712;BME280;20941;42.408;25.634;2023-02-04T02:18:35;99300.44;;;2.48;79.09
34712;BME280;20941;42.408;25.634;2023-02-04T02:21:04;99316.03;;;2.54;78.97
34712;BME280;20941;42.408;25.634;2023-02-04T02:23:51;99309.13;;;2.56;78.18
34712;BME280;20941;42.408;25.634;2023-02-04T02:26:19;99300.72;;;2.51;78.08
34712;BME280;20941;42.408;25.634;2023-02-04T02:28:46;99307.13;;;2.52;77.84
34712;BME280;20941;42.408;25.634;2023-02-04T02:31:17;99295.44;;;2.50;77.91
34712;BME280;20941;42.408;25.634;2023-02-04T02:33:44;99289.34;;;2.48;78.50
34712;BME280;20941;42.408;25.634;2023-02-04T02:36:10;99292.78;;;2.60;76.79
34712;BME280;20941;42.408;25.634;2023-02-04T02:38:35;99275.53;;;2.58;76.39
34712;BME280;20941;42.408;25.634;2023-02-04T02:41:02;99281.13;;;2.63;75.55
34712;BME280;20941;42.408;25.634;2023-02-04T02:43:28;99268.28;;;2.57;75.68
34712;BME280;20941;42.408;25.634;2023-02-04T02:45:57;99267.47;;;2.56;75.08
34712;BME280;20941;42.408;25.634;2023-02-04T02:48:23;99261.25;;;2.44;75.05
34712;BME280;20941;42.408;25.634;2023-02-04T02:50:49;99256.56;;;2.50;75.28
34712;BME280;20941;42.408;25.634;2023-02-04T02:53:17;99265.56;;;2.62;75.36
34712;BME280;20941;42.408;25.634;2023-02-04T02:55:44;99269.50;;;2.66;74.39
34712;BME280;20941;42.408;25.634;2023-02-04T02:58:33;99244.41;;;2.56;75.42
34712;BME280;20941;42.408;25.634;2023-02-04T03:01:03;99238.31;;;2.54;74.63
34712;BME280;20941;42.408;25.634;2023-02-04T03:03:34;99240.56;;;2.62;73.57
34712;BME280;20941;42.408;25.634;2023-02-04T03:06:09;99220.47;;;2.50;75.42
34712;BME280;20941;42.408;25.634;2023-02-04T03:08:36;99237.84;;;2.67;76.70
34712;BME280;20941;42.408;25.634;2023-02-04T03:11:02;99221.72;;;2.64;77.29
34712;BME280;20941;42.408;25.634;2023-02-04T03:13:28;99225.59;;;2.63;78.35
34712;BME280;20941;42.408;25.634;2023-02-04T03:15:54;99206.88;;;2.48;79.05
34712;BME280;20941;42.408;25.634;2023-02-04T03:18:19;99227.25;;;2.64;79.10
34712;BME280;20941;42.408;25.634;2023-02-04T03:20:47;99225.63;;;2.68;79.18
34712;BME280;20941;42.408;25.634;2023-02-04T03:23:13;99215.03;;;2.60;80.11
34712;BME280;20941;42.408;25.634;2023-02-04T03:25:39;99207.47;;;2.50;80.30
34712;BME280;20941;42.408;25.634;2023-02-04T03:28:05;99197.13;;;2.40;81.10
34712;BME280;20941;42.408;25.634;2023-02-04T03:30:31;99215.81;;;2.55;80.62
34712;BME280;20941;42.408;25.634;2023-02-04T03:32:56;99206.13;;;2.58;82.07
34712;BME280;20941;42.408;25.634;2023-02-04T03:35:22;99203.06;;;2.60;82.54
34712;BME280;20941;42.408;25.634;2023-02-04T03:37:48;99173.75;;;2.36;83.09
34712;BME280;20941;42.408;25.634;2023-02-04T03:40:14;99207.50;;;2.55;84.23
34712;BME280;20941;42.408;25.634;2023-02-04T03:42:40;99193.31;;;2.52;84.52
34712;BME280;20941;42.408;25.634;2023-02-04T03:45:05;99177.69;;;2.40;84.29
34712;BME280;20941;42.408;25.634;2023-02-04T03:47:31;99173.19;;;2.34;84.08
34712;BME280;20941;42.408;25.634;2023-02-04T03:49:57;99194.34;;;2.40;84.82
34712;BME280;20941;42.408;25.634;2023-02-04T03:52:22;99168.66;;;2.23;86.00
34712;BME280;20941;42.408;25.634;2023-02-04T03:54:48;99174.78;;;2.25;86.24
34712;BME280;20941;42.408;25.634;2023-02-04T03:57:13;99168.09;;;2.21;86.12
34712;BME280;20941;42.408;25.634;2023-02-04T03:59:40;99165.34;;;2.26;86.58
34712;BME280;20941;42.408;25.634;2023-02-04T04:02:06;99170.97;;;2.36;86.95
34712;BME280;20941;42.408;25.634;2023-02-04T04:04:32;99162.63;;;2.31;86.67
34712;BME280;20941;42.408;25.634;2023-02-04T04:06:58;99139.13;;;2.06;86.39
34712;BME280;20941;42.408;25.634;2023-02-04T04:09:23;99161.38;;;2.17;86.79
34712;BME280;20941;42.408;25.634;2023-02-04T04:11:49;99156.91;;;2.11;85.50
34712;BME280;20941;42.408;25.634;2023-02-04T04:14:14;99164.09;;;2.06;84.92
34712;BME280;20941;42.408;25.634;2023-02-04T04:16:40;99160.22;;;2.07;84.95
34712;BME280;20941;42.408;25.634;2023-02-04T04:19:05;99152.69;;;2.03;84.94
34712;BME280;20941;42.408;25.634;2023-02-04T04:21:31;99124.03;;;1.92;85.65
34712;BME280;20941;42.408;25.634;2023-02-04T04:23:56;99157.66;;;2.01;85.05
34712;BME280;20941;42.408;25.634;2023-02-04T04:26:22;99162.44;;;2.11;85.89
34712;BME280;20941;42.408;25.634;2023-02-04T04:28:47;99140.69;;;1.97;85.47
34712;BME280;20941;42.408;25.634;2023-02-04T04:31:13;99134.22;;;1.86;84.55
34712;BME280;20941;42.408;25.634;2023-02-04T04:33:38;99150.06;;;1.91;85.33
34712;BME280;20941;42.408;25.634;2023-02-04T04:36:05;99139.25;;;1.89;85.21
34712;BME280;20941;42.408;25.634;2023-02-04T04:38:30;99124.25;;;1.85;85.61
34712;BME280;20941;42.408;25.634;2023-02-04T04:40:56;99142.91;;;1.95;85.56
34712;BME280;20941;42.408;25.634;2023-02-04T04:43:22;99132.31;;;1.87;85.73
34712;BME280;20941;42.408;25.634;2023-02-04T04:45:48;99143.97;;;1.89;86.20
34712;BME280;20941;42.408;25.634;2023-02-04T04:48:13;99142.31;;;1.88;86.88
34712;BME280;20941;42.408;25.634;2023-02-04T04:50:39;99134.44;;;1.80;86.46
34712;BME280;20941;42.408;25.634;2023-02-04T04:53:04;99151.75;;;1.92;87.16
34712;BME280;20941;42.408;25.634;2023-02-04T04:55:38;99142.81;;;1.85;86.72
34712;BME280;20941;42.408;25.634;2023-02-04T04:58:05;99153.44;;;1.93;87.14
34712;BME280;20941;42.408;25.634;2023-02-04T05:00:31;99157.97;;;2.04;87.25
34712;BME280;20941;42.408;25.634;2023-02-04T05:02:57;99154.16;;;2.16;87.47
34712;BME280;20941;42.408;25.634;2023-02-04T05:05:22;99123.22;;;1.97;87.45
34712;BME280;20941;42.408;25.634;2023-02-04T05:07:48;99155.09;;;2.27;86.74
34712;BME280;20941;42.408;25.634;2023-02-04T05:10:14;99155.31;;;2.20;87.02
34712;BME280;20941;42.408;25.634;2023-02-04T05:12:39;99130.84;;;2.12;86.71
34712;BME280;20941;42.408;25.634;2023-02-04T05:15:05;99136.50;;;2.27;85.96
34712;BME280;20941;42.408;25.634;2023-02-04T05:17:30;99151.06;;;2.45;84.74
34712;BME280;20941;42.408;25.634;2023-02-04T05:19:56;99142.16;;;2.43;84.92
34712;BME280;20941;42.408;25.634;2023-02-04T05:22:21;99129.97;;;2.49;85.25
34712;BME280;20941;42.408;25.634;2023-02-04T05:24:47;99138.00;;;2.45;85.17
34712;BME280;20941;42.408;25.634;2023-02-04T05:27:12;99117.34;;;2.25;86.15
34712;BME280;20941;42.408;25.634;2023-02-04T05:29:38;99127.63;;;2.30;86.52
34712;BME280;20941;42.408;25.634;2023-02-04T05:32:03;99150.22;;;2.44;86.18
34712;BME280;20941;42.408;25.634;2023-02-04T05:34:29;99123.75;;;2.26;87.13
34712;BME280;20941;42.408;25.634;2023-02-04T05:36:55;99137.00;;;2.19;87.88
34712;BME280;20941;42.408;25.634;2023-02-04T05:39:20;99130.63;;;2.18;88.92
34712;BME280;20941;42.408;25.634;2023-02-04T05:41:46;99121.69;;;2.11;89.40
34712;BME280;20941;42.408;25.634;2023-02-04T05:44:12;99112.50;;;2.11;90.38
34712;BME280;20941;42.408;25.634;2023-02-04T05:46:37;99097.72;;;2.00;89.91
34712;BME280;20941;42.408;25.634;2023-02-04T05:49:03;99111.38;;;2.06;90.23
34712;BME280;20941;42.408;25.634;2023-02-04T05:51:30;99101.25;;;1.90;90.85
34712;BME280;20941;42.408;25.634;2023-02-04T05:53:55;99123.13;;;1.86;91.85
34712;BME280;20941;42.408;25.634;2023-02-04T05:56:21;99145.88;;;1.56;95.17
34712;BME280;20941;42.408;25.634;2023-02-04T05:58:46;99115.97;;;1.31;95.51
34712;BME280;20941;42.408;25.634;2023-02-04T06:01:12;99124.00;;;1.32;96.79
34712;BME280;20941;42.408;25.634;2023-02-04T06:03:38;99099.28;;;1.25;97.59
34712;BME280;20941;42.408;25.634;2023-02-04T06:06:03;99109.63;;;1.35;97.48
34712;BME280;20941;42.408;25.634;2023-02-04T06:08:29;99094.69;;;1.36;97.95
34712;BME280;20941;42.408;25.634;2023-02-04T06:10:54;99091.50;;;1.50;98.05
34712;BME280;20941;42.408;25.634;2023-02-04T06:13:20;99097.44;;;1.64;97.47
34712;BME280;20941;42.408;25.634;2023-02-04T06:15:46;99088.84;;;1.65;96.47
34712;BME280;20941;42.408;25.634;2023-02-04T06:18:11;99093.91;;;1.73;96.07
34712;BME280;20941;42.408;25.634;2023-02-04T06:20:38;99100.59;;;1.77;96.88
34712;BME280;20941;42.408;25.634;2023-02-04T06:23:03;99091.66;;;1.70;97.12
34712;BME280;20941;42.408;25.634;2023-02-04T06:25:29;99076.19;;;1.74;96.28
34712;BME280;20941;42.408;25.634;2023-02-04T06:27:54;99103.53;;;1.98;96.25
34712;BME280;20941;42.408;25.634;2023-02-04T06:30:20;99102.47;;;2.04;95.22
34712;BME280;20941;42.408;25.634;2023-02-04T06:32:45;99087.25;;;2.07;95.32
34712;BME280;20941;42.408;25.634;2023-02-04T06:35:11;99089.22;;;2.12;95.09
34712;BME280;20941;42.408;25.634;2023-02-04T06:37:38;99111.00;;;2.30;94.18
34712;BME280;20941;42.408;25.634;2023-02-04T06:40:04;99122.13;;;2.35;93.63
34712;BME280;20941;42.408;25.634;2023-02-04T06:42:30;99127.44;;;2.42;91.65
34712;BME280;20941;42.408;25.634;2023-02-04T06:44:55;99132.13;;;2.36;90.51
34712;BME280;20941;42.408;25.634;2023-02-04T06:47:21;99091.50;;;2.20;90.58
34712;BME280;20941;42.408;25.634;2023-02-04T06:49:47;99124.69;;;2.42;90.55
34712;BME280;20941;42.408;25.634;2023-02-04T06:52:12;99112.72;;;2.41;89.36
34712;BME280;20941;42.408;25.634;2023-02-04T06:54:38;99102.59;;;2.20;89.31
34712;BME280;20941;42.408;25.634;2023-02-04T06:57:03;99132.16;;;2.41;89.98
34712;BME280;20941;42.408;25.634;2023-02-04T06:59:36;99120.41;;;2.29;90.60
34712;BME280;20941;42.408;25.634;2023-02-04T07:02:03;99123.31;;;2.50;89.84
34712;BME280;20941;42.408;25.634;2023-02-04T07:04:29;99122.53;;;2.54;90.32
34712;BME280;20941;42.408;25.634;2023-02-04T07:06:55;99115.00;;;2.50;89.66
34712;BME280;20941;42.408;25.634;2023-02-04T07:09:21;99081.69;;;2.50;89.15
34712;BME280;20941;42.408;25.634;2023-02-04T07:11:47;99114.63;;;2.84;89.91
34712;BME280;20941;42.408;25.634;2023-02-04T07:14:12;99116.31;;;2.85;91.29
34712;BME280;20941;42.408;25.634;2023-02-04T07:16:38;99124.09;;;2.88;93.77
34712;BME280;20941;42.408;25.634;2023-02-04T07:19:03;99138.03;;;2.98;94.32
34712;BME280;20941;42.408;25.634;2023-02-04T07:21:29;99119.69;;;2.92;94.20
34712;BME280;20941;42.408;25.634;2023-02-04T07:23:55;99132.81;;;3.12;93.99
34712;BME280;20941;42.408;25.634;2023-02-04T07:26:20;99099.66;;;2.95;93.32
34712;BME280;20941;42.408;25.634;2023-02-04T07:28:46;99126.94;;;3.03;93.72
34712;BME280;20941;42.408;25.634;2023-02-04T07:31:12;99113.88;;;3.04;94.39
34712;BME280;20941;42.408;25.634;2023-02-04T07:33:37;99095.56;;;3.03;95.50
34712;BME280;20941;42.408;25.634;2023-02-04T07:36:04;99111.66;;;3.06;95.30
34712;BME280;20941;42.408;25.634;2023-02-04T07:38:30;99134.97;;;3.00;96.38
34712;BME280;20941;42.408;25.634;2023-02-04T07:40:55;99114.00;;;2.66;97.95
34712;BME280;20941;42.408;25.634;2023-02-04T07:43:21;99133.97;;;2.68;99.96
34712;BME280;20941;42.408;25.634;2023-02-04T07:45:46;99136.44;;;2.60;100.00
34712;BME280;20941;42.408;25.634;2023-02-04T07:48:12;99154.16;;;2.53;100.00
34712;BME280;20941;42.408;25.634;2023-02-04T07:50:37;99151.63;;;2.47;100.00
34712;BME280;20941;42.408;25.634;2023-02-04T07:53:03;99149.38;;;2.44;100.00
34712;BME280;20941;42.408;25.634;2023-02-04T07:55:29;99116.00;;;2.28;100.00
34712;BME280;20941;42.408;25.634;2023-02-04T07:57:54;99124.38;;;2.38;100.00
34712;BME280;20941;42.408;25.634;2023-02-04T08:00:20;99097.38;;;2.29;100.00
34712;BME280;20941;42.408;25.634;2023-02-04T08:02:46;99118.03;;;2.43;100.00
34712;BME280;20941;42.408;25.634;2023-02-04T08:05:12;99124.72;;;2.52;100.00
34712;BME280;20941;42.408;25.634;2023-02-04T08:07:37;99116.41;;;2.52;100.00
34712;BME280;20941;42.408;25.634;2023-02-04T08:10:05;99123.03;;;2.51;100.00
34712;BME280;20941;42.408;25.634;2023-02-04T08:12:31;99134.03;;;2.73;100.00
34712;BME280;20941;42.408;25.634;2023-02-04T08:14:57;99085.06;;;2.62;100.00
34712;BME280;20941;42.408;25.634;2023-02-04T08:17:23;99103.50;;;2.79;100.00
34712;BME280;20941;42.408;25.634;2023-02-04T08:19:48;99113.34;;;3.07;100.00
34712;BME280;20941;42.408;25.634;2023-02-04T08:22:14;99105.28;;;3.05;100.00
34712;BME280;20941;42.408;25.634;2023-02-04T08:24:39;99103.69;;;3.25;100.00
34712;BME280;20941;42.408;25.634;2023-02-04T08:27:05;99091.19;;;3.38;100.00
34712;BME280;20941;42.408;25.634;2023-02-04T08:29:31;99060.56;;;3.17;100.00
34712;BME280;20941;42.408;25.634;2023-02-04T08:31:56;99101.47;;;3.37;100.00
34712;BME280;20941;42.408;25.634;2023-02-04T08:34:22;99095.41;;;3.51;100.00
34712;BME280;20941;42.408;25.634;2023-02-04T08:36:47;99077.03;;;3.45;100.00
34712;BME280;20941;42.408;25.634;2023-02-04T08:39:13;99072.03;;;3.57;100.00
34712;BME280;20941;42.408;25.634;2023-02-04T08:41:38;99079.56;;;3.62;100.00
34712;BME280;20941;42.408;25.634;2023-02-04T08:44:04;99062.03;;;3.61;100.00
34712;BME280;20941;42.408;25.634;2023-02-04T08:46:29;99070.66;;;3.96;100.00
34712;BME280;20941;42.408;25.634;2023-02-04T08:48:55;99061.72;;;4.14;100.00
34712;BME280;20941;42.408;25.634;2023-02-04T08:51:21;99057.22;;;4.34;100.00
34712;BME280;20941;42.408;25.634;2023-02-04T08:53:46;99085.34;;;4.38;100.00
34712;BME280;20941;42.408;25.634;2023-02-04T08:56:12;99069.78;;;4.26;98.63
34712;BME280;20941;42.408;25.634;2023-02-04T08:58:42;99079.00;;;4.27;98.31
34712;BME280;20941;42.408;25.634;2023-02-04T09:01:07;99082.00;;;4.56;100.00
34712;BME280;20941;42.408;25.634;2023-02-04T09:03:35;99069.09;;;4.71;100.00
34712;BME280;20941;42.408;25.634;2023-02-04T09:06:01;99050.91;;;4.94;99.30
34712;BME280;20941;42.408;25.634;2023-02-04T09:08:27;99056.59;;;5.23;98.15
34712;BME280;20941;42.408;25.634;2023-02-04T09:10:52;99059.53;;;5.47;97.46
34712;BME280;20941;42.408;25.634;2023-02-04T09:13:18;99052.50;;;5.55;94.88
34712;BME280;20941;42.408;25.634;2023-02-04T09:15:43;99040.66;;;5.69;95.44
34712;BME280;20941;42.408;25.634;2023-02-04T09:18:09;99019.03;;;5.90;96.51
34712;BME280;20941;42.408;25.634;2023-02-04T09:20:49;99031.78;;;6.01;92.43
34712;BME280;20941;42.408;25.634;2023-02-04T09:23:15;99041.47;;;6.38;91.51
34712;BME280;20941;42.408;25.634;2023-02-04T09:25:42;99053.00;;;6.56;88.87
34712;BME280;20941;42.408;25.634;2023-02-04T09:28:09;99036.22;;;6.56;86.59
34712;BME280;20941;42.408;25.634;2023-02-04T09:30:39;99013.72;;;6.47;85.18
34712;BME280;20941;42.408;25.634;2023-02-04T09:33:05;99027.81;;;6.61;84.16
34712;BME280;20941;42.408;25.634;2023-02-04T09:35:31;99026.84;;;6.71;82.60
34712;BME280;20941;42.408;25.634;2023-02-04T09:37:57;99007.22;;;6.76;83.34
34712;BME280;20941;42.408;25.634;2023-02-04T09:40:25;99014.06;;;7.08;82.03
34712;BME280;20941;42.408;25.634;2023-02-04T09:42:52;99006.88;;;7.21;80.62
34712;BME280;20941;42.408;25.634;2023-02-04T09:45:24;99004.25;;;7.11;78.50
34712;BME280;20941;42.408;25.634;2023-02-04T09:47:52;99008.09;;;7.15;79.35
34712;BME280;20941;42.408;25.634;2023-02-04T09:50:21;98997.38;;;7.03;77.23
34712;BME280;20941;42.408;25.634;2023-02-04T09:52:50;98997.97;;;6.56;78.25
34712;BME280;20941;42.408;25.634;2023-02-04T09:55:18;99001.06;;;6.31;80.88
34712;BME280;20941;42.408;25.634;2023-02-04T09:57:45;98958.06;;;6.26;83.11
34712;BME280;20941;42.408;25.634;2023-02-04T10:00:18;98982.25;;;6.36;82.26
34712;BME280;20941;42.408;25.634;2023-02-04T10:02:44;98970.03;;;6.32;82.24
34712;BME280;20941;42.408;25.634;2023-02-04T10:05:31;98970.97;;;6.22;85.15
34712;BME280;20941;42.408;25.634;2023-02-04T10:07:58;98965.34;;;6.28;86.17
34712;BME280;20941;42.408;25.634;2023-02-04T10:10:25;98931.66;;;6.43;87.25
34712;BME280;20941;42.408;25.634;2023-02-04T10:12:55;98940.69;;;6.97;87.25
34712;BME280;20941;42.408;25.634;2023-02-04T10:15:22;98926.19;;;7.47;84.74
34712;BME280;20941;42.408;25.634;2023-02-04T10:17:50;98910.78;;;7.31;80.07
34712;BME280;20941;42.408;25.634;2023-02-04T10:20:21;98931.31;;;7.59;80.76
34712;BME280;20941;42.408;25.634;2023-02-04T10:22:51;98918.16;;;7.60;79.17
34712;BME280;20941;42.408;25.634;2023-02-04T10:25:19;98904.91;;;7.32;78.68
34712;BME280;20941;42.408;25.634;2023-02-04T10:27:52;98905.41;;;7.34;81.57
34712;BME280;20941;42.408;25.634;2023-02-04T10:30:29;98881.91;;;7.35;82.62
34712;BME280;20941;42.408;25.634;2023-02-04T10:33:28;98887.38;;;7.27;83.59
34712;BME280;20941;42.408;25.634;2023-02-04T10:35:55;98886.34;;;7.22;81.44
34712;BME280;20941;42.408;25.634;2023-02-04T10:38:22;98898.56;;;7.27;81.17
34712;BME280;20941;42.408;25.634;2023-02-04T10:40:58;98887.03;;;7.47;80.32
34712;BME280;20941;42.408;25.634;2023-02-04T10:43:24;98897.28;;;7.99;79.28
34712;BME280;20941;42.408;25.634;2023-02-04T10:46:03;98878.28;;;8.24;76.54
34712;BME280;20941;42.408;25.634;2023-02-04T10:48:29;98873.41;;;8.43;76.20
34712;BME280;20941;42.408;25.634;2023-02-04T10:51:03;98868.63;;;8.58;75.02
34712;BME280;20941;42.408;25.634;2023-02-04T10:53:29;98868.78;;;8.75;73.12
34712;BME280;20941;42.408;25.634;2023-02-04T10:56:22;98864.13;;;9.07;72.66
34712;BME280;20941;42.408;25.634;2023-02-04T10:58:48;98859.41;;;9.17;70.94
34712;BME280;20941;42.408;25.634;2023-02-04T11:01:15;98847.56;;;8.97;68.97
34712;BME280;20941;42.408;25.634;2023-02-04T11:03:41;98862.59;;;9.24;69.59
34712;BME280;20941;42.408;25.634;2023-02-04T11:06:13;98837.59;;;9.36;71.34
34712;BME280;20941;42.408;25.634;2023-02-04T11:08:40;98834.03;;;9.44;69.12
34712;BME280;20941;42.408;25.634;2023-02-04T11:11:08;98855.03;;;9.78;68.65
34712;BME280;20941;42.408;25.634;2023-02-04T11:18:49;98842.97;;;9.87;64.21
34712;BME280;20941;42.408;25.634;2023-02-04T11:24:23;98839.94;;;10.06;62.76
34712;BME280;20941;42.408;25.634;2023-02-04T11:26:52;98812.56;;;9.48;60.59
34712;BME280;20941;42.408;25.634;2023-02-04T11:29:34;98829.19;;;9.36;58.30
34712;BME280;20941;42.408;25.634;2023-02-04T11:32:06;98836.50;;;9.23;59.01
34712;BME280;20941;42.408;25.634;2023-02-04T11:34:44;98823.03;;;9.03;59.93
34712;BME280;20941;42.408;25.634;2023-02-04T11:37:17;98831.72;;;9.01;59.01
34712;BME280;20941;42.408;25.634;2023-02-04T11:39:47;98839.78;;;9.17;57.13
34712;BME280;20941;42.408;25.634;2023-02-04T11:42:21;98836.16;;;9.16;57.13
34712;BME280;20941;42.408;25.634;2023-02-04T11:44:49;98804.03;;;8.77;56.70
34712;BME280;20941;42.408;25.634;2023-02-04T11:47:14;98816.72;;;8.60;57.04
34712;BME280;20941;42.408;25.634;2023-02-04T11:49:40;98812.59;;;8.58;58.05
34712;BME280;20941;42.408;25.634;2023-02-04T11:52:10;98817.34;;;8.43;57.07
34712;BME280;20941;42.408;25.634;2023-02-04T11:54:37;98824.63;;;8.44;57.26
34712;BME280;20941;42.408;25.634;2023-02-04T11:57:02;98820.28;;;8.38;57.70
34712;BME280;20941;42.408;25.634;2023-02-04T11:59:28;98820.19;;;8.29;57.88
34712;BME280;20941;42.408;25.634;2023-02-04T12:02:20;98807.44;;;8.09;57.76
34712;BME280;20941;42.408;25.634;2023-02-04T12:04:54;98824.66;;;8.16;58.71
34712;BME280;20941;42.408;25.634;2023-02-04T12:07:22;98821.56;;;8.04;59.74
34712;BME280;20941;42.408;25.634;2023-02-04T12:09:48;98804.75;;;8.04;60.00
34712;BME280;20941;42.408;25.634;2023-02-04T12:12:28;98779.25;;;7.92;59.88
34712;BME280;20941;42.408;25.634;2023-02-04T12:15:13;98778.22;;;8.01;59.68
34712;BME280;20941;42.408;25.634;2023-02-04T12:17:39;98791.88;;;8.31;59.18
34712;BME280;20941;42.408;25.634;2023-02-04T12:20:05;98800.53;;;8.43;59.32
34712;BME280;20941;42.408;25.634;2023-02-04T12:22:30;98790.59;;;8.37;59.13
34712;BME280;20941;42.408;25.634;2023-02-04T12:24:56;98797.44;;;8.59;59.25
34712;BME280;20941;42.408;25.634;2023-02-04T12:27:21;98757.53;;;8.62;58.72
34712;BME280;20941;42.408;25.634;2023-02-04T12:29:47;98795.78;;;9.03;57.67
34712;BME280;20941;42.408;25.634;2023-02-04T12:32:12;98793.13;;;8.98;57.53
34712;BME280;20941;42.408;25.634;2023-02-04T12:34:38;98777.81;;;9.04;57.32
34712;BME280;20941;42.408;25.634;2023-02-04T12:37:04;98749.19;;;8.93;57.35
34712;BME280;20941;42.408;25.634;2023-02-04T12:39:29;98780.09;;;9.25;57.09
34712;BME280;20941;42.408;25.634;2023-02-04T12:41:56;98782.53;;;9.18;55.64
34712;BME280;20941;42.408;25.634;2023-02-04T12:44:21;98789.38;;;9.34;55.16
34712;BME280;20941;42.408;25.634;2023-02-04T12:46:47;98786.19;;;9.27;55.57
34712;BME280;20941;42.408;25.634;2023-02-04T12:49:13;98752.00;;;8.93;56.10
34712;BME280;20941;42.408;25.634;2023-02-04T12:51:38;98777.06;;;9.12;55.15
34712;BME280;20941;42.408;25.634;2023-02-04T12:54:04;98755.13;;;8.92;54.42
34712;BME280;20941;42.408;25.634;2023-02-04T12:56:29;98767.38;;;8.96;54.54
34712;BME280;20941;42.408;25.634;2023-02-04T12:58:55;98802.06;;;9.00;54.05
34712;BME280;20941;42.408;25.634;2023-02-04T13:01:23;98765.84;;;8.67;54.53
34712;BME280;20941;42.408;25.634;2023-02-04T13:03:49;98793.00;;;8.80;54.19
34712;BME280;20941;42.408;25.634;2023-02-04T13:06:14;98801.03;;;8.73;56.44
34712;BME280;20941;42.408;25.634;2023-02-04T13:08:40;98815.31;;;8.35;58.73
34712;BME280;20941;42.408;25.634;2023-02-04T13:11:05;98802.25;;;8.16;60.35